Aérodrome :
LOGIN :

S'inscrire | Disclaimer

   EN    FR    IT 

 










Légende :    VFR   VFR Marginal   IFR   IFR Intensif   IFR Très Intensif
Visi : 
Plafond : 
>= 8 km
>= 3000ft
5 à 8 km
1000 à 3000 ft
1500m à 5 km
500 à 1000 ft
800 à 1500m
200 à 500 ft
< 800m
< 200 ft
Symboles :   Orages  Brouillard  Fortes neiges  Fortes précipitations  Vent > 20 kt
SIGMETs :   Divers  Orages  Givrage  Turbulence  Onde Orograph.  Cendres Volcan.






- Altitude de l'aérodrome : 28 ft
- Code IATA : SOZ


LFKS - Solenzara

DERNIER METAR :
  • 050700Z AUTO VRB05KT 9999 // ////// 22/10 Q0998

METARs EXPIRÉS :
  • 050630Z AUTO 27004KT 210V360 9999 FEW044/// SCT072/// BKN110/// ///CB 22/11 Q0998
  • 050600Z AUTO 26005KT 220V300 9999 FEW046/// SCT086/// BKN120/// ///CB 23/10 Q0998
  • 050530Z AUTO 27004KT 220V300 9999 BKN076/// BKN088/// ///CB 21/12 Q0998
  • 050500Z AUTO 29005KT 230V350 9999 SCT068/// BKN084/// ///TCU 20/10 Q0999
  • 050430Z AUTO 28004KT 230V340 9999 BKN070/// OVC086/// ///TCU 20/10 Q0998

TAF TAF LFKS
Valide du 05 à 03h jusqu'au 06 à 03h UTC


050430Z 0503/0603 27005KT 9999 FEW040TCU
BECMG 0507/0509 27015G25KT CAVOK
TEMPO 0510/0518 27020G40KT
BECMG 0518/0520 27005KT



MET'MAP, la Météo Aéronautique d'un coup d'oeil ! - Copyright ORBIFLY Décembre 2007 - Disclaimer

ORBIFLY MET'MAP TEAM :

Programmation & Développement : Alexandra Zaïnal
Sur une idée originale de : Baudouin d'Aumeries
Assistance à la programmation : Marc-Olivier Méhu
Soutien technique & logistique : Manuel Goepfert

Contact : metmap@orbifly.com




SOURCES & CREDITS :

   NOAA